1992 H19192 (1992057S17052)


On this page: IBTrACS data - Map and Plots - Positions - Intensities - Original source data

Summary

Start Feb 26
End Mar 1
Basin SI
LMI 31 kt
Source reunion
In WMO? Yes
Related storms 1992055S17053
Previous storm 1992 HARRIET (SI)
Previous in basin 1992 HARRIET (SI)
Concurrent storms 1992 ELIZABETA (SI)
1992 FARIDA (SI)
1992 IAN (SI)
1992 ESAU (SP)
1992 GERDA (SI)
1992 HARRIET (SI)
1992 H19192 (SI)
Next in basin Missing
Next storm 1992 FRAN (SP)

top of page IBTrACS Data: File Access

top of page HURSAT Data: File Access

Image of storm

top of page Plots:

Map of storm track will not appear if FTP is down
Time series of cyclone Maximum Sustained Wind will not appear if FTP is down
Time series of cyclone Minimum Central Pressure will not appear if FTP is down

top of page Track Data:Position

reunion
Date Lat Lon
1992-02-26 00:00:00 -17.0 51.9
1992-02-26 06:00:00 -17.0 52.1
1992-02-26 12:00:00 -16.9 52.3
1992-02-26 18:00:00 -16.9 52.4
1992-02-27 00:00:00 -16.8 52.6
1992-02-27 06:00:00 -16.5 52.9
1992-02-27 12:00:00 -16.1 53.3
1992-02-27 18:00:00 -15.5 53.9
1992-02-28 00:00:00 -15.0 54.7
1992-02-28 06:00:00 -14.4 55.5
1992-02-28 12:00:00 -14.0 56.4
1992-02-28 18:00:00 -13.7 58.1
1992-02-29 00:00:00 -13.8 60.1
1992-02-29 06:00:00 -14.9 61.7
1992-02-29 12:00:00 -16.4 62.8
1992-02-29 18:00:00 -17.8 62.5
1992-03-01 00:00:00 -18.9 61.4
1992-03-01 06:00:00 -19.2 59.9
1992-03-01 12:00:00 -17.9 58.9
1992-03-01 18:00:00 -16.9 59.8

top of pageTrack Data:Intensity

reunion
Date Wind Pres
1992-02-26 00:00:00 20. 1006.
1992-02-26 06:00:00 20. 1006.
1992-02-26 12:00:00 20. 1003.
1992-02-26 18:00:00 20. 1003.
1992-02-27 00:00:00 24. 1000.
1992-02-27 06:00:00 24. 1000.
1992-02-27 12:00:00 24. 1000.
1992-02-27 18:00:00 25. 999.
1992-02-28 00:00:00 28. 997.
1992-02-28 06:00:00 28. 997.
1992-02-28 12:00:00 28. 997.
1992-02-28 18:00:00 31. 995.
1992-02-29 00:00:00 31. 995.
1992-02-29 06:00:00 31. 995.
1992-02-29 12:00:00 31. 995.
1992-02-29 18:00:00 25. 999.
1992-03-01 00:00:00 27. 998.
1992-03-01 06:00:00 24. 1000.
1992-03-01 12:00:00 24. 1000.
1992-03-01 18:00:00 21. 1002.

top of page Links to source data

Source Source file Format
reunion WMO-Best-Tracks.txt:Line=15742:h19192 WMO (old format)